< < Back
Terminal Aerodrome Forecast


Current Version              Previous Versions:   1  2  3  4  5  6  7  8  9  

Terminal Aerodrome Forecast

032
FTUS42 KCAE 290520
TAFCAE
TAF
KCAE 290520Z 2906/3006 22008KT P6SM SKC
     FM290800 VRB03KT P6SM SKC
     FM291400 33006KT P6SM SCT250=



Latest METAR

707
SAUS80 KWBC 291600 RRA
MTRCAE
METAR KCAE 291556Z VRB04KT 10SM SCT200 29/14 A2996 RMK AO2 SLP143
T02940139


USA.gov is the U.S. government's official web portal to all federal, state and local government web resources and services.